Grand Forks International Airport
KGFK : rendu visible

Aérodrome :











RETROUVEZ-NOUS SUR...

 
LOGIN :

S'inscrire | Disclaimer

   EN    FR    IT 

 









Légende :    VFR   VFR Marginal   IFR   IFR Intensif   IFR Très Intensif
Visi : 
Plafond : 
>= 8 km
>= 3000ft
5 à 8 km
1000 à 3000 ft
1500m à 5 km
500 à 1000 ft
800 à 1500m
200 à 500 ft
< 800m
< 200 ft
Symboles :   Orages  Brouillard  Fortes neiges  Fortes précipitations  Vent > 20 kt






- Altitude de l'aérodrome : 845 ft
- Code IATA : GFK


KGFK - Grand Forks International

DERNIER METAR :
  • 042353Z 11005KT 10SM BKN075 OVC090 M03/M09 A3011 RMK AO2 SLP217 4/007 T10281094 11028 21067 56018

METARs EXPIRÉS :
  • 042253Z 13008KT 10SM OVC110 M03/M09 A3013 RMK AO2 SLP222 T10331089
  • 042153Z 15009KT 10SM OVC100 M04/M11 A3015 RMK AO2 SLP231 T10441106

TAF KGFK
Valide du 05 à 00h jusqu'au 06 à 00h UTC


042333Z 0500/0524 12008KT P6SM BKN100
FM050900 VRB05KT P6SM SCT120
FM052000 VRB05KT P6SM BKN090



MET'MAP, la Météo Aéronautique d'un coup d'oeil ! - Copyright ORBIFLY Décembre 2007 - Disclaimer

ORBIFLY MET'MAP TEAM :

Programmation & Développement : Alexandra Zaïnal
Sur une idée originale de : Baudouin d'Aumeries
Assistance à la programmation : Marc-Olivier Méhu
Soutien technique & logistique : Manuel Goepfert

Contact : metmap@orbifly.com




SOURCES & CREDITS :

   NOAA       Earth
Advisory